Aracruz, Brazil
Current Conditions -  °F | °C
As of 3:00 PM on Monday 24 Nov 2014 (Local Time) from SBVT Reporting Station
Broken Clouds Broken Clouds  
Wind Chill: 82°   Ceiling: 8000
Heat Index: 88°   Visibility: 6mi
Dew Point: 73°   Wind: 12mph
Humidity: 74%   Direction: 50°NE
Pressure: 29.94"   Gusts: NA
Location:  19.82°S, 40.27°W
Report Text: SBVT 241700Z 05010KT 9999 SCT025 BKN080 28/23 Q1014
Loading
Personal Weather Stations






























Interactive Weather Map New forecast layout! Learn more

10-Day Weather Forecast

Advertisements
Track Severe Weather on mobile